Terminal Aerodrome Forecast
Issued by NWS Wakefield, VA

Home | Current Version | Previous Version | Text Only | Print | Product List | Glossary On
Versions: 1 2 3 4 5 6 7 8 9 10 11 12 13 14 15 16 17 18 19
000
FTUS41 KAKQ 301742 RRA
TAFORF
TAF
KORF 301742Z 3018/0118 19011G18KT P6SM BKN250
     FM302300 21012KT P6SM BKN100
     FM010500 24009KT P6SM BKN050 OVC100=

USA.gov is the U.S. government's official web portal to all federal, state and local government web resources and services.